Time;durP1;ratioP1;P1;durP2;ratioP2;P2;SDS_P1;SDS_P2;PMS_P1;PMS_P2;Temp;Humidity;BMP_temperature;BMP_pressure;BME280_temperature;BME280_humidity;BME280_pressure;Samples;Min_cycle;Max_cycle;Signal;HPM_P1;HPM_P2
2022/07/15 00:00:13;;;;;;;4.03;1.97;;;26.10;59.40;;;;;;6182814;23;20497;-71
2022/07/15 00:02:41;;;;;;;2.43;1.80;;;26.10;59.40;;;;;;6182656;23;20370;-71
2022/07/15 00:05:10;;;;;;;4.80;2.00;;;26.10;59.50;;;;;;6181552;23;20372;-71
2022/07/15 00:07:37;;;;;;;4.03;2.20;;;26.10;59.40;;;;;;6181363;23;20375;-71
2022/07/15 00:10:20;;;;;;;2.43;2.20;;;26.00;59.40;;;;;;6156664;23;20400;-71
2022/07/15 00:12:51;;;;;;;3.60;2.00;;;26.00;59.40;;;;;;6132049;23;20474;-71
2022/07/15 00:15:19;;;;;;;7.30;2.47;;;26.00;59.40;;;;;;6131734;23;20419;-71
2022/07/15 00:17:45;;;;;;;4.30;2.20;;;25.90;59.40;;;;;;6181240;23;20426;-71
2022/07/15 00:20:21;;;;;;;3.90;2.30;;;25.90;59.50;;;;;;6182743;23;20416;-71
2022/07/15 00:22:52;;;;;;;3.53;1.97;;;25.90;59.50;;;;;;6184154;23;20431;-71
2022/07/15 00:25:18;;;;;;;3.33;1.80;;;25.90;59.60;;;;;;6182895;23;20671;-71
2022/07/15 00:28:00;;;;;;;2.53;1.60;;;25.90;59.60;;;;;;6184001;23;20459;-71
2022/07/15 00:30:32;;;;;;;3.40;1.50;;;25.90;59.60;;;;;;6183388;23;20395;-71
2022/07/15 00:33:00;;;;;;;2.63;1.90;;;25.90;59.70;;;;;;6183211;23;20390;-71
2022/07/15 00:35:28;;;;;;;3.57;2.00;;;25.90;59.70;;;;;;6158354;23;20428;-71
2022/07/15 00:37:56;;;;;;;2.60;2.10;;;25.80;59.70;;;;;;6183205;23;20372;-71
2022/07/15 00:40:23;;;;;;;2.30;1.60;;;25.80;59.80;;;;;;6158048;23;20497;-71
2022/07/15 00:42:49;;;;;;;3.90;2.20;;;25.80;59.80;;;;;;6158270;23;20380;-71
2022/07/15 00:45:23;;;;;;;3.20;1.93;;;25.80;59.80;;;;;;6185176;23;20421;-71
2022/07/15 00:48:00;;;;;;;2.63;1.80;;;25.70;59.80;;;;;;6184712;23;20418;-71
2022/07/15 00:50:28;;;;;;;2.03;1.80;;;25.70;59.80;;;;;;6184954;23;20400;-71
2022/07/15 00:52:57;;;;;;;3.00;1.93;;;25.70;59.80;;;;;;6183664;23;20393;-71
2022/07/15 00:55:24;;;;;;;1.67;1.53;;;25.70;59.90;;;;;;6183637;23;20472;-71
2022/07/15 00:57:56;;;;;;;4.77;2.03;;;25.60;59.80;;;;;;6208541;23;20467;-71
2022/07/15 01:00:23;;;;;;;3.77;1.97;;;25.60;59.80;;;;;;6133806;23;20478;-71
2022/07/15 01:02:56;;;;;;;2.33;1.77;;;25.60;59.90;;;;;;6158807;23;20363;-71
2022/07/15 01:05:25;;;;;;;2.60;2.07;;;25.60;59.90;;;;;;6183601;23;20878;-71
2022/07/15 01:07:52;;;;;;;3.80;2.17;;;25.60;59.90;;;;;;6208161;23;20417;-71
2022/07/15 01:10:25;;;;;;;3.43;2.00;;;25.60;60.70;;;;;;6159549;23;20393;-71
2022/07/15 01:12:53;;;;;;;3.17;2.00;;;25.50;59.90;;;;;;6183383;23;20403;-71
2022/07/15 01:15:28;;;;;;;2.40;2.00;;;25.50;59.90;;;;;;6208396;23;20993;-71
2022/07/15 01:18:03;;;;;;;4.30;1.67;;;25.50;60.00;;;;;;6183557;23;20391;-71
2022/07/15 01:20:32;;;;;;;3.10;1.80;;;25.50;60.00;;;;;;6158748;23;20496;-71
2022/07/15 01:23:02;;;;;;;2.93;2.00;;;25.40;59.90;;;;;;6159460;23;20460;-71
2022/07/15 01:25:42;;;;;;;4.60;2.00;;;25.40;60.00;;;;;;6183393;23;20404;-71
2022/07/15 01:28:13;;;;;;;7.57;1.60;;;25.40;60.00;;;;;;6158391;23;20436;-71
2022/07/15 01:30:44;;;;;;;3.17;2.10;;;25.40;60.00;;;;;;6182876;23;20994;-71
2022/07/15 01:33:16;;;;;;;2.70;1.70;;;25.40;60.10;;;;;;6183740;23;20381;-71
2022/07/15 01:35:49;;;;;;;3.10;1.80;;;25.40;60.10;;;;;;6174208;23;20731;-71
2022/07/15 01:38:16;;;;;;;4.53;1.93;;;25.30;60.10;;;;;;6158193;23;20402;-71
2022/07/15 01:40:42;;;;;;;5.13;2.23;;;25.30;60.10;;;;;;6158078;23;20439;-71
2022/07/15 01:43:12;;;;;;;3.03;2.10;;;25.30;60.20;;;;;;6158622;23;20419;-71
2022/07/15 01:45:43;;;;;;;2.20;1.60;;;25.30;60.20;;;;;;6158167;23;20477;-71
2022/07/15 01:51:15;;;;;;;4.53;1.90;;;25.20;60.20;;;;;;6183156;23;20844;-71
2022/07/15 01:53:48;;;;;;;5.27;2.13;;;25.20;60.30;;;;;;6158409;23;20399;-71
2022/07/15 01:56:14;;;;;;;3.03;2.10;;;25.20;60.30;;;;;;6158411;23;20460;-71
2022/07/15 01:58:41;;;;;;;2.00;1.73;;;25.20;60.30;;;;;;6183142;23;20464;-71
2022/07/15 02:01:08;;;;;;;2.50;1.80;;;25.20;60.30;;;;;;6158400;23;20381;-71
2022/07/15 02:03:34;;;;;;;3.03;2.33;;;25.20;60.40;;;;;;6183101;23;20363;-71
2022/07/15 02:06:00;;;;;;;2.03;1.60;;;25.20;60.40;;;;;;6183269;23;20369;-71
2022/07/15 02:08:28;;;;;;;2.70;1.90;;;25.10;60.30;;;;;;6183279;23;20444;-71
2022/07/15 02:10:57;;;;;;;2.50;1.90;;;25.10;60.40;;;;;;6158462;23;20964;-71
2022/07/15 02:13:23;;;;;;;1.87;1.67;;;25.10;60.50;;;;;;6183301;23;20795;-71
2022/07/15 02:15:56;;;;;;;4.80;2.10;;;25.10;60.50;;;;;;6182955;23;20947;-71
2022/07/15 02:18:22;;;;;;;1.80;1.70;;;25.10;60.60;;;;;;6184344;23;20369;-71
2022/07/15 02:20:52;;;;;;;3.40;1.97;;;25.00;60.50;;;;;;6134177;23;20973;-71
2022/07/15 02:23:21;;;;;;;3.50;2.00;;;25.00;60.60;;;;;;6182557;23;20369;-71
2022/07/15 02:25:47;;;;;;;3.50;2.20;;;25.00;60.60;;;;;;6158200;23;20451;-71
2022/07/15 02:28:13;;;;;;;3.50;1.93;;;25.00;60.70;;;;;;6157853;23;20751;-71
2022/07/15 02:30:41;;;;;;;2.50;1.83;;;25.00;60.70;;;;;;6157719;23;20404;-71
2022/07/15 02:33:10;;;;;;;3.27;2.20;;;25.00;60.70;;;;;;6183121;23;20361;-71
2022/07/15 02:35:37;;;;;;;1.97;1.60;;;24.90;60.70;;;;;;6182902;23;20440;-71
2022/07/15 02:38:07;;;;;;;3.73;2.10;;;24.90;60.80;;;;;;6182665;23;20373;-71
2022/07/15 02:40:35;;;;;;;3.57;1.60;;;24.90;60.80;;;;;;6183001;23;20427;-71
2022/07/15 02:43:05;;;;;;;2.53;1.90;;;24.90;60.80;;;;;;6157641;23;20404;-71
2022/07/15 02:45:37;;;;;;;3.07;1.90;;;24.90;60.90;;;;;;6158308;23;21239;-71
2022/07/15 02:48:08;;;;;;;2.57;1.60;;;24.90;61.00;;;;;;6182392;23;20396;-71
2022/07/15 02:50:41;;;;;;;2.83;1.70;;;24.90;61.00;;;;;;6134990;23;20834;-71
2022/07/15 02:53:08;;;;;;;2.23;1.90;;;24.90;61.00;;;;;;6184115;23;20420;-71
2022/07/15 02:55:38;;;;;;;2.33;1.90;;;24.80;61.00;;;;;;6157539;23;20830;-71
2022/07/15 02:58:04;;;;;;;3.83;2.17;;;24.80;61.10;;;;;;6207440;23;20379;-71
2022/07/15 03:00:32;;;;;;;3.10;2.53;;;24.80;61.10;;;;;;6133498;23;20405;-71
2022/07/15 03:03:02;;;;;;;2.50;2.07;;;24.80;61.10;;;;;;6157802;23;20722;-71
2022/07/15 03:05:28;;;;;;;4.30;2.00;;;24.80;61.20;;;;;;6182648;23;20361;-71
2022/07/15 03:07:55;;;;;;;2.30;1.93;;;24.70;61.10;;;;;;6157534;23;20835;-71
2022/07/15 03:10:24;;;;;;;2.47;2.23;;;24.70;61.20;;;;;;6182286;23;20403;-71
2022/07/15 03:12:50;;;;;;;2.73;1.80;;;24.70;61.20;;;;;;6182524;23;20457;-71
2022/07/15 03:15:18;;;;;;;1.80;1.70;;;24.70;61.30;;;;;;6182516;23;20737;-71
2022/07/15 03:17:48;;;;;;;3.00;2.10;;;24.70;61.30;;;;;;6158319;23;20364;-71
2022/07/15 03:20:14;;;;;;;2.47;1.70;;;24.70;61.40;;;;;;6181671;23;20907;-71
2022/07/15 03:22:49;;;;;;;4.23;2.07;;;24.60;61.30;;;;;;6182318;23;20414;-71
2022/07/15 03:25:15;;;;;;;2.00;1.63;;;24.70;61.50;;;;;;6182740;23;20408;-71
2022/07/15 03:27:41;;;;;;;2.50;1.70;;;24.60;61.40;;;;;;6182404;23;20388;-71
2022/07/15 03:30:10;;;;;;;1.97;1.77;;;24.60;61.50;;;;;;6157424;23;20502;-71
2022/07/15 03:32:37;;;;;;;4.90;1.93;;;24.60;61.50;;;;;;6182684;23;20377;-71
2022/07/15 03:35:09;;;;;;;4.33;2.57;;;24.50;61.40;;;;;;6158202;23;20416;-71
2022/07/15 03:37:40;;;;;;;5.03;2.23;;;24.50;61.50;;;;;;6182385;23;20919;-71
2022/07/15 03:40:06;;;;;;;3.53;2.00;;;24.50;61.70;;;;;;6182080;23;20390;-71
2022/07/15 03:42:37;;;;;;;2.37;2.00;;;24.50;61.60;;;;;;6182549;23;20703;-71
2022/07/15 03:45:04;;;;;;;2.93;2.17;;;24.50;61.60;;;;;;6157718;23;20424;-71
2022/07/15 03:47:33;;;;;;;2.60;1.83;;;24.40;61.60;;;;;;6157518;23;20373;-71
2022/07/15 03:50:01;;;;;;;3.10;1.87;;;24.40;61.50;;;;;;6157866;23;20975;-71
2022/07/15 03:52:32;;;;;;;2.73;1.83;;;24.40;61.60;;;;;;6182241;23;20692;-71
2022/07/15 03:55:00;;;;;;;2.30;1.90;;;24.40;61.70;;;;;;6182310;23;20411;-71
2022/07/15 03:57:28;;;;;;;2.90;2.30;;;24.40;61.70;;;;;;6182982;23;20377;-71
2022/07/15 03:59:54;;;;;;;3.50;2.40;;;24.40;61.80;;;;;;6185323;23;20969;-71
2022/07/15 04:02:21;;;;;;;3.03;2.20;;;24.30;61.70;;;;;;6183643;23;20910;-71
2022/07/15 04:04:52;;;;;;;4.40;2.27;;;24.30;61.70;;;;;;6184469;23;20365;-71
2022/07/15 04:07:18;;;;;;;5.20;2.10;;;24.30;61.70;;;;;;6185719;23;20368;-71
2022/07/15 04:09:44;;;;;;;3.90;2.10;;;24.30;61.80;;;;;;6159292;23;20412;-71
2022/07/15 04:12:18;;;;;;;5.10;2.80;;;24.30;61.80;;;;;;6184151;23;20470;-71
2022/07/15 04:14:44;;;;;;;2.87;2.03;;;24.20;61.80;;;;;;6184060;23;20430;-71
2022/07/15 04:17:11;;;;;;;3.40;2.20;;;24.20;61.80;;;;;;6161713;23;20474;-72
2022/07/15 04:19:39;;;;;;;3.10;1.83;;;24.20;61.80;;;;;;6214164;23;20438;-72
2022/07/15 04:22:05;;;;;;;3.00;1.87;;;24.20;61.90;;;;;;6215093;23;20382;-72
2022/07/15 04:24:38;;;;;;;3.33;1.60;;;24.20;61.90;;;;;;6191642;23;20351;-73
2022/07/15 04:27:06;;;;;;;3.17;2.43;;;24.20;61.90;;;;;;6190185;23;20360;-72
2022/07/15 04:29:35;;;;;;;5.10;2.40;;;24.20;61.90;;;;;;6164493;23;20407;-72
2022/07/15 04:32:03;;;;;;;3.20;1.67;;;24.10;61.90;;;;;;6214775;23;20359;-72
2022/07/15 04:34:34;;;;;;;3.03;1.73;;;24.10;61.90;;;;;;6214677;23;20932;-74
2022/07/15 04:37:00;;;;;;;2.80;2.37;;;24.10;62.00;;;;;;6214502;23;20422;-71
2022/07/15 04:39:29;;;;;;;3.10;2.40;;;24.10;62.00;;;;;;6190456;23;20395;-71
2022/07/15 04:41:59;;;;;;;2.87;2.33;;;24.10;62.00;;;;;;6190292;23;20386;-71
2022/07/15 04:44:25;;;;;;;5.33;2.23;;;24.10;62.10;;;;;;6215540;23;20391;-72
2022/07/15 04:46:51;;;;;;;5.10;2.40;;;24.00;62.00;;;;;;6190328;23;20386;-72
2022/07/15 04:52:15;;;;;;;2.53;1.80;;;24.00;62.10;;;;;;6215217;23;20360;-71
2022/07/15 04:54:44;;;;;;;4.80;2.50;;;24.00;62.10;;;;;;6214952;23;20552;-72
2022/07/15 04:57:11;;;;;;;2.70;2.10;;;24.00;62.20;;;;;;6215138;23;20878;-72
2022/07/15 04:59:42;;;;;;;4.23;2.40;;;24.00;62.30;;;;;;6214116;23;20464;-71
2022/07/15 05:02:12;;;;;;;3.37;1.97;;;24.00;62.30;;;;;;6190936;23;20359;-72
2022/07/15 05:04:41;;;;;;;2.90;2.20;;;23.90;62.20;;;;;;6166468;23;20395;-71
2022/07/15 05:07:09;;;;;;;4.20;2.67;;;23.90;62.30;;;;;;6165355;23;20771;-71
2022/07/15 05:09:39;;;;;;;4.50;2.27;;;23.90;62.40;;;;;;6215399;23;20784;-72
2022/07/15 05:12:07;;;;;;;4.80;3.73;;;23.90;62.40;;;;;;6189870;23;20761;-71
2022/07/15 05:14:45;;;;;;;2.93;2.10;;;23.90;62.40;;;;;;6214791;23;20419;-71
2022/07/15 05:17:12;;;;;;;3.50;2.43;;;23.90;62.50;;;;;;6189746;23;20494;-71
2022/07/15 05:19:40;;;;;;;4.70;2.70;;;23.90;62.60;;;;;;6214714;23;20391;-71
2022/07/15 05:22:06;;;;;;;3.37;2.40;;;23.80;62.50;;;;;;6165187;23;20402;-71
2022/07/15 05:24:33;;;;;;;2.40;2.03;;;23.80;62.50;;;;;;6214502;23;20430;-76
2022/07/15 05:27:03;;;;;;;2.00;1.90;;;23.80;62.50;;;;;;6215239;23;20364;-72
2022/07/15 05:29:34;;;;;;;4.93;2.30;;;23.80;62.60;;;;;;6213483;23;20407;-72
2022/07/15 05:32:03;;;;;;;3.20;2.10;;;23.80;62.60;;;;;;6188865;23;20374;-74
2022/07/15 05:34:34;;;;;;;2.90;2.00;;;23.80;62.70;;;;;;6164915;23;20406;-73
2022/07/15 05:37:23;;;;;;;4.40;2.10;;;23.80;62.70;;;;;;6202423;23;20383;-72
2022/07/15 05:39:56;;;;;;;2.27;1.90;;;23.80;62.80;;;;;;6211776;23;20391;-74
2022/07/15 05:42:40;;;;;;;2.90;1.93;;;23.80;62.80;;;;;;6212431;23;20411;-72
2022/07/15 05:45:09;;;;;;;2.97;1.90;;;23.80;62.90;;;;;;6212406;23;20386;-72
2022/07/15 05:47:54;;;;;;;2.90;2.00;;;23.80;63.00;;;;;;6212345;23;20751;-73
2022/07/15 05:50:24;;;;;;;3.50;2.37;;;23.70;62.80;;;;;;6186984;23;20398;-72
2022/07/15 05:52:57;;;;;;;3.47;1.87;;;23.70;62.90;;;;;;6214000;23;20404;-73
2022/07/15 05:55:23;;;;;;;7.60;2.77;;;23.70;62.90;;;;;;6213156;23;20442;-73
2022/07/15 05:57:49;;;;;;;2.80;2.03;;;23.70;63.00;;;;;;6213384;23;20356;-73
2022/07/15 06:00:18;;;;;;;5.17;2.40;;;23.70;63.00;;;;;;6213900;23;20491;-73
2022/07/15 06:02:46;;;;;;;4.40;2.67;;;23.70;63.10;;;;;;6213421;23;20384;-73
2022/07/15 06:05:23;;;;;;;4.87;2.30;;;23.70;63.10;;;;;;6190279;23;20367;-72
2022/07/15 06:07:56;;;;;;;5.20;2.73;;;23.70;63.10;;;;;;6213415;23;20507;-74
2022/07/15 06:10:28;;;;;;;3.37;2.03;;;23.70;63.10;;;;;;6213686;23;20885;-73
2022/07/15 06:12:56;;;;;;;2.40;1.80;;;23.70;63.20;;;;;;6189036;23;20363;-74
2022/07/15 06:15:23;;;;;;;5.60;2.27;;;23.60;63.00;;;;;;6213389;23;20473;-73
2022/07/15 06:17:53;;;;;;;4.33;2.80;;;23.60;63.00;;;;;;6164289;23;20415;-74
2022/07/15 06:20:23;;;;;;;2.30;1.90;;;23.60;63.00;;;;;;6212972;23;20398;-74
2022/07/15 06:22:49;;;;;;;3.30;2.00;;;23.70;63.20;;;;;;6213669;23;20371;-73
2022/07/15 06:25:16;;;;;;;3.63;2.27;;;23.60;63.10;;;;;;6213623;23;20374;-73
2022/07/15 06:27:44;;;;;;;1.83;1.73;;;23.60;63.10;;;;;;6188136;23;20454;-74
2022/07/15 06:30:12;;;;;;;2.23;1.57;;;23.60;63.20;;;;;;6213449;23;20403;-73
2022/07/15 06:32:39;;;;;;;5.60;2.23;;;23.60;63.20;;;;;;6238501;23;20430;-75
2022/07/15 06:35:08;;;;;;;3.27;2.10;;;23.60;63.10;;;;;;6212982;23;20910;-73
2022/07/15 06:37:34;;;;;;;4.37;2.20;;;23.60;63.10;;;;;;6212025;23;20396;-74
2022/07/15 06:40:01;;;;;;;4.93;2.50;;;23.60;63.10;;;;;;6213182;23;20928;-74
2022/07/15 06:42:28;;;;;;;4.03;2.43;;;23.60;63.20;;;;;;6163114;23;20388;-74
2022/07/15 06:45:05;;;;;;;3.43;1.70;;;23.60;63.10;;;;;;6214400;23;20371;-77
2022/07/15 06:47:33;;;;;;;2.70;1.70;;;23.60;63.20;;;;;;6213376;23;20406;-74
2022/07/15 06:50:04;;;;;;;5.93;2.07;;;23.60;63.20;;;;;;6212911;23;20403;-76
2022/07/15 06:52:32;;;;;;;2.37;2.10;;;23.50;63.00;;;;;;6214740;23;20791;-76
2022/07/15 06:55:00;;;;;;;4.53;1.93;;;23.50;63.00;;;;;;6187947;23;20788;-75
2022/07/15 06:57:30;;;;;;;2.90;2.30;;;23.50;62.90;;;;;;6213067;23;20379;-76
2022/07/15 06:59:56;;;;;;;3.10;1.90;;;23.50;63.00;;;;;;6212979;23;20430;-75
2022/07/15 07:02:24;;;;;;;3.50;2.03;;;23.60;63.00;;;;;;6213215;23;20367;-77
2022/07/15 07:04:50;;;;;;;3.43;2.00;;;23.50;62.90;;;;;;6187860;23;20474;-76
2022/07/15 07:07:16;;;;;;;4.43;2.23;;;23.50;62.80;;;;;;6213129;23;20367;-72
2022/07/15 07:09:46;;;;;;;3.80;2.00;;;23.50;62.70;;;;;;6212558;23;20406;-75
2022/07/15 07:12:15;;;;;;;3.77;1.73;;;23.50;62.70;;;;;;6212820;23;20749;-75
2022/07/15 07:14:41;;;;;;;4.17;2.27;;;23.50;62.60;;;;;;6212698;23;20419;-75
2022/07/15 07:17:07;;;;;;;3.30;2.03;;;23.50;62.60;;;;;;6214261;23;20395;-76
2022/07/15 07:19:32;;;;;;;3.10;1.90;;;23.50;62.60;;;;;;6212940;23;20413;-75
2022/07/15 07:22:01;;;;;;;4.60;2.20;;;23.50;62.60;;;;;;6212581;23;20693;-75
2022/07/15 07:24:27;;;;;;;7.33;2.20;;;23.50;62.50;;;;;;6214225;23;20364;-75
2022/07/15 07:26:53;;;;;;;3.50;1.90;;;23.50;62.50;;;;;;6212549;23;20364;-75
2022/07/15 07:29:22;;;;;;;2.07;1.87;;;23.50;62.50;;;;;;6211794;23;20411;-75
2022/07/15 07:31:51;;;;;;;2.60;2.40;;;23.40;62.40;;;;;;6212533;23;20451;-75
2022/07/15 07:34:20;;;;;;;3.13;2.20;;;23.50;62.50;;;;;;6214131;23;20816;-76
2022/07/15 07:36:48;;;;;;;5.53;1.97;;;23.40;62.40;;;;;;6212300;23;20375;-76
2022/07/15 07:39:19;;;;;;;3.73;2.30;;;23.40;62.30;;;;;;6211433;23;20411;-76
2022/07/15 07:41:45;;;;;;;2.20;1.97;;;23.40;62.30;;;;;;6162310;23;20481;-76
2022/07/15 07:44:11;;;;;;;2.40;1.80;;;23.40;62.30;;;;;;6162639;23;20407;-76
2022/07/15 07:46:37;;;;;;;2.93;1.90;;;23.40;62.30;;;;;;6162459;23;20512;-76
2022/07/15 07:49:08;;;;;;;3.63;2.00;;;23.40;62.30;;;;;;6212600;23;20314;-76
2022/07/15 07:51:36;;;;;;;6.70;2.13;;;23.40;62.30;;;;;;6212116;23;20401;-76
2022/07/15 07:54:03;;;;;;;2.57;1.73;;;23.40;62.30;;;;;;6212558;23;20434;-76
2022/07/15 07:56:29;;;;;;;3.97;2.00;;;23.40;62.20;;;;;;6213794;23;20497;-76
2022/07/15 07:58:57;;;;;;;4.43;2.20;;;23.40;62.20;;;;;;6212170;23;20769;-76
2022/07/15 08:01:27;;;;;;;3.93;2.03;;;23.40;62.20;;;;;;6214115;23;20387;-76
2022/07/15 08:03:53;;;;;;;2.83;1.53;;;23.40;62.20;;;;;;6212636;23;20419;-76
2022/07/15 08:06:22;;;;;;;3.20;2.00;;;23.40;62.20;;;;;;6214089;23;20881;-73
2022/07/15 08:08:51;;;;;;;3.83;2.20;;;23.40;62.10;;;;;;6213378;23;20372;-74
2022/07/15 08:11:22;;;;;;;5.40;2.00;;;23.40;62.10;;;;;;6213441;23;20838;-73
2022/07/15 08:13:48;;;;;;;2.03;1.70;;;23.40;62.10;;;;;;6212118;23;20482;-74
2022/07/15 08:16:14;;;;;;;2.63;2.37;;;23.40;62.10;;;;;;6210944;23;20422;-71
2022/07/15 08:18:43;;;;;;;4.80;1.80;;;23.40;62.10;;;;;;6213366;23;20387;-71
2022/07/15 08:21:13;;;;;;;2.90;1.97;;;23.40;62.10;;;;;;6213790;23;20367;-71
2022/07/15 08:23:42;;;;;;;3.17;1.90;;;23.40;62.00;;;;;;6211973;23;20407;-71
2022/07/15 08:26:11;;;;;;;2.20;1.43;;;23.40;62.00;;;;;;6213843;23;20385;-71
2022/07/15 08:28:37;;;;;;;1.83;1.60;;;23.40;61.90;;;;;;6163332;23;20854;-70
2022/07/15 08:31:03;;;;;;;5.33;1.87;;;23.40;61.90;;;;;;6212014;23;20414;-70
2022/07/15 08:33:29;;;;;;;5.00;1.70;;;23.40;61.90;;;;;;6212583;23;20398;-70
2022/07/15 08:35:56;;;;;;;2.90;1.80;;;23.40;61.90;;;;;;6212675;23;20430;-70
2022/07/15 08:38:22;;;;;;;4.20;1.90;;;23.40;61.90;;;;;;6212708;23;20394;-70
2022/07/15 08:40:49;;;;;;;3.20;1.70;;;23.40;61.90;;;;;;6214305;23;20398;-70
2022/07/15 08:43:17;;;;;;;3.67;1.70;;;23.40;61.90;;;;;;6213415;23;20372;-70
2022/07/15 08:45:43;;;;;;;3.13;1.60;;;23.40;61.80;;;;;;6214581;23;20771;-70
2022/07/15 08:48:10;;;;;;;3.10;1.60;;;23.40;61.90;;;;;;6214703;23;20395;-70
2022/07/15 08:50:37;;;;;;;2.97;1.70;;;23.40;61.60;;;;;;6214639;23;20490;-70
2022/07/15 08:53:04;;;;;;;3.90;1.63;;;23.40;61.40;;;;;;6189691;23;20363;-70
2022/07/15 08:55:33;;;;;;;2.93;1.30;;;23.50;61.30;;;;;;6216038;23;20422;-70
2022/07/15 08:57:59;;;;;;;2.50;1.67;;;23.50;61.10;;;;;;6213007;23;20407;-70
2022/07/15 09:00:28;;;;;;;4.07;1.70;;;23.50;60.80;;;;;;6215851;23;20534;-70
2022/07/15 09:03:04;;;;;;;2.50;1.47;;;23.50;60.70;;;;;;6216126;23;20453;-70
2022/07/15 09:05:37;;;;;;;4.13;1.77;;;23.50;60.70;;;;;;6213375;23;20418;-70
2022/07/15 09:08:10;;;;;;;3.03;1.83;;;23.50;60.40;;;;;;6214795;23;20415;-70
2022/07/15 09:11:00;;;;;;;2.47;1.80;;;23.50;60.50;;;;;;6213979;23;20402;-70
2022/07/15 09:13:26;;;;;;;4.67;1.97;;;23.50;60.40;;;;;;6215148;23;20367;-70
2022/07/15 09:15:54;;;;;;;4.70;1.80;;;23.60;60.60;;;;;;6215686;23;20785;-71
2022/07/15 09:18:26;;;;;;;3.70;1.80;;;23.60;60.40;;;;;;6212991;23;20211;-71
2022/07/15 09:20:52;;;;;;;1.53;1.33;;;23.60;60.40;;;;;;6163700;23;20419;-71
2022/07/15 09:23:31;;;;;;;2.90;1.57;;;23.60;60.30;;;;;;6189086;23;20667;-71
2022/07/15 09:26:20;;;;;;;2.93;1.87;;;23.60;60.20;;;;;;6213935;23;20413;-70
2022/07/15 09:28:46;;;;;;;2.63;1.70;;;23.60;60.20;;;;;;6212661;23;20415;-70
2022/07/15 09:34:01;;;;;;;3.43;1.90;;;23.60;60.10;;;;;;6215215;23;20792;-73
2022/07/15 09:36:31;;;;;;;4.50;1.50;;;23.60;60.10;;;;;;6215775;23;20404;-73
2022/07/15 09:38:58;;;;;;;3.27;1.50;;;23.60;60.00;;;;;;6213817;23;20470;-71
2022/07/15 09:41:43;;;;;;;2.37;1.60;;;23.60;60.00;;;;;;6215711;23;20363;-74
2022/07/15 09:44:20;;;;;;;2.83;1.83;;;23.70;60.10;;;;;;6214398;23;20407;-73
2022/07/15 09:46:48;;;;;;;1.97;1.70;;;23.70;60.00;;;;;;6214268;23;20430;-73
2022/07/15 09:49:20;;;;;;;3.20;2.20;;;23.70;60.00;;;;;;6164791;23;20422;-73
2022/07/15 09:51:56;;;;;;;2.70;1.70;;;23.70;59.90;;;;;;6214942;23;20450;-73
2022/07/15 09:54:34;;;;;;;2.23;1.60;;;23.70;59.90;;;;;;6214089;23;20387;-73
2022/07/15 09:57:03;;;;;;;2.17;1.50;;;23.70;59.80;;;;;;6214835;23;20425;-73
2022/07/15 09:59:30;;;;;;;3.00;1.63;;;23.70;59.80;;;;;;6239973;23;20752;-73
2022/07/15 10:02:00;;;;;;;3.20;1.20;;;23.70;59.90;;;;;;6214186;23;20411;-73
2022/07/15 10:04:28;;;;;;;1.90;1.50;;;23.80;60.00;;;;;;6215762;23;20364;-73
2022/07/15 10:07:04;;;;;;;2.77;1.67;;;23.80;59.90;;;;;;6217779;23;20866;-78
2022/07/15 10:09:38;;;;;;;2.90;1.70;;;23.80;59.70;;;;;;6217812;23;20395;-79
2022/07/15 10:12:12;;;;;;;2.13;1.57;;;23.80;59.70;;;;;;6171583;23;20379;-78
2022/07/15 10:14:57;;;;;;;2.37;1.60;;;23.80;59.60;;;;;;6191907;23;20454;-76
2022/07/15 10:17:35;;;;;;;1.87;1.20;;;23.80;59.60;;;;;;6165172;23;20505;-76
2022/07/15 10:20:31;;;;;;;3.00;1.90;;;23.80;59.50;;;;;;6214526;23;20449;-75
2022/07/15 10:23:12;;;;;;;2.23;1.60;;;23.80;59.60;;;;;;6214831;23;20422;-75
2022/07/15 10:26:06;;;;;;;5.27;1.70;;;23.80;59.60;;;;;;6215173;23;20715;-77
2022/07/15 10:28:49;;;;;;;2.13;1.60;;;23.80;59.60;;;;;;6214559;23;20415;-76
2022/07/15 10:31:32;;;;;;;3.27;1.70;;;23.80;59.50;;;;;;6216296;23;20374;-76
2022/07/15 10:34:04;;;;;;;2.63;1.63;;;23.90;59.60;;;;;;6216058;23;20406;-77
2022/07/15 10:36:46;;;;;;;2.43;1.70;;;23.90;59.50;;;;;;6189502;23;20474;-76
2022/07/15 10:39:14;;;;;;;2.40;1.63;;;23.90;59.50;;;;;;6214484;23;20762;-76
2022/07/15 10:42:04;;;;;;;4.67;1.83;;;23.90;59.40;;;;;;6214422;23;20394;-76
2022/07/15 10:44:50;;;;;;;2.13;1.57;;;23.90;59.40;;;;;;6214523;23;20450;-75
2022/07/15 10:47:19;;;;;;;3.33;1.73;;;23.90;59.30;;;;;;6213821;23;20407;-76
2022/07/15 10:49:50;;;;;;;3.90;1.73;;;23.90;59.20;;;;;;6215894;23;20422;-76
2022/07/15 10:52:24;;;;;;;4.30;2.30;;;24.00;59.20;;;;;;6214661;23;20367;-76
2022/07/15 10:55:03;;;;;;;2.50;1.90;;;24.00;59.30;;;;;;6214182;23;20441;-75
2022/07/15 10:57:44;;;;;;;2.50;1.47;;;24.00;59.30;;;;;;6164531;23;20374;-76
2022/07/15 11:00:34;;;;;;;2.77;1.60;;;24.00;59.30;;;;;;6215213;23;20761;-76
2022/07/15 11:03:14;;;;;;;1.90;1.50;;;24.00;59.20;;;;;;6213965;23;20410;-74
2022/07/15 11:05:49;;;;;;;2.50;1.50;;;24.00;59.20;;;;;;6188932;23;20399;-76
2022/07/15 11:08:33;;;;;;;4.10;1.83;;;24.00;59.20;;;;;;6189402;23;20395;-76
2022/07/15 11:11:15;;;;;;;3.13;1.77;;;24.00;59.20;;;;;;6214339;23;21009;-76
2022/07/15 11:13:43;;;;;;;3.10;1.73;;;24.10;59.30;;;;;;6215786;23;20866;-76
2022/07/15 11:16:12;;;;;;;1.57;1.47;;;24.10;59.20;;;;;;6215661;23;20441;-76
2022/07/15 11:18:47;;;;;;;1.47;1.30;;;24.10;59.20;;;;;;6215751;23;20364;-76
2022/07/15 11:21:17;;;;;;;2.23;1.90;;;24.10;59.10;;;;;;6215653;23;20375;-76
2022/07/15 11:23:44;;;;;;;2.90;1.57;;;24.10;59.10;;;;;;6213815;23;20406;-76
2022/07/15 11:26:10;;;;;;;2.33;1.50;;;24.10;59.20;;;;;;6214210;23;20746;-76
2022/07/15 11:28:47;;;;;;;2.80;1.47;;;24.10;59.10;;;;;;6213594;23;20414;-71
2022/07/15 11:31:13;;;;;;;3.00;1.60;;;24.10;58.90;;;;;;6212885;23;20410;-71
2022/07/15 11:33:41;;;;;;;2.13;1.50;;;24.20;59.00;;;;;;6212879;23;20395;-71
2022/07/15 11:36:17;;;;;;;2.57;1.20;;;24.20;58.80;;;;;;6214720;23;20469;-71
2022/07/15 11:38:45;;;;;;;1.70;1.53;;;24.20;58.80;;;;;;6214601;23;20359;-71
2022/07/15 11:46:57;;;;;;;2.60;1.60;;;24.30;58.80;;;;;;6187831;23;20407;-71
2022/07/15 11:49:30;;;;;;;2.63;1.30;;;24.30;58.60;;;;;;6162970;23;20404;-71
2022/07/15 11:51:57;;;;;;;2.73;1.60;;;24.30;58.70;;;;;;6213137;23;20388;-71
2022/07/15 11:54:25;;;;;;;2.23;1.60;;;24.30;58.80;;;;;;6214718;23;20371;-71
2022/07/15 11:56:59;;;;;;;2.10;1.50;;;24.40;58.70;;;;;;6213200;23;20398;-73
2022/07/15 11:59:27;;;;;;;2.37;1.63;;;24.40;58.50;;;;;;6237661;23;20473;-73
2022/07/15 12:02:12;;;;;;;1.63;1.20;;;24.40;58.40;;;;;;6213313;23;20390;-71
2022/07/15 12:04:42;;;;;;;3.27;1.37;;;24.40;58.40;;;;;;6213051;23;20379;-71
2022/07/15 12:07:11;;;;;;;2.20;1.27;;;24.40;58.30;;;;;;6214810;23;20352;-71
2022/07/15 12:09:42;;;;;;;3.13;1.50;;;24.40;58.20;;;;;;6214270;23;20395;-71
2022/07/15 12:12:14;;;;;;;1.70;1.30;;;24.40;58.00;;;;;;6188223;23;20364;-71
2022/07/15 12:14:42;;;;;;;1.77;1.27;;;24.40;58.20;;;;;;6212397;23;20379;-74
2022/07/15 12:17:09;;;;;;;1.70;1.23;;;24.50;58.20;;;;;;6186645;23;20478;-72
2022/07/15 12:19:36;;;;;;;2.07;1.20;;;24.50;58.20;;;;;;6213903;23;20495;-72
2022/07/15 12:22:07;;;;;;;1.80;1.13;;;24.50;58.20;;;;;;6163969;23;20371;-72
2022/07/15 12:24:44;;;;;;;3.80;1.37;;;24.50;58.20;;;;;;6239305;23;20478;-72
2022/07/15 12:27:14;;;;;;;3.00;1.33;;;24.50;58.70;;;;;;6216594;23;20363;-73
2022/07/15 12:29:41;;;;;;;5.23;1.30;;;24.50;58.20;;;;;;6215671;23;20785;-72
2022/07/15 12:32:10;;;;;;;2.50;1.63;;;24.50;58.20;;;;;;6214479;23;20851;-72
2022/07/15 12:34:51;;;;;;;1.60;1.30;;;24.50;58.10;;;;;;6214976;23;20842;-72
2022/07/15 12:37:22;;;;;;;1.80;1.40;;;24.50;58.10;;;;;;6216139;23;20716;-75
2022/07/15 12:40:01;;;;;;;1.60;1.20;;;24.50;58.20;;;;;;6216588;23;20409;-77
2022/07/15 12:43:03;;;;;;;2.23;1.20;;;24.50;58.10;;;;;;6194802;23;20454;-71
2022/07/15 12:45:36;;;;;;;2.20;1.40;;;24.50;58.10;;;;;;6095889;23;20442;-71
2022/07/15 12:48:05;;;;;;;2.00;1.10;;;24.50;58.00;;;;;;6167807;23;20468;-70
2022/07/15 12:50:42;;;;;;;2.13;1.20;;;24.50;58.00;;;;;;6185149;23;20431;-69
2022/07/15 12:53:10;;;;;;;3.70;1.43;;;24.50;58.10;;;;;;6186349;23;20364;-72
2022/07/15 12:55:43;;;;;;;1.80;1.27;;;24.50;58.10;;;;;;6186187;23;20408;-71
2022/07/15 12:58:15;;;;;;;4.00;1.33;;;24.60;58.10;;;;;;6186411;23;20400;-72
2022/07/15 13:00:48;;;;;;;2.13;1.17;;;24.60;57.90;;;;;;6209508;23;20411;-71
2022/07/15 13:03:22;;;;;;;1.73;1.20;;;24.60;58.00;;;;;;6184771;23;20364;-71
2022/07/15 13:05:54;;;;;;;1.30;1.20;;;24.60;58.00;;;;;;6184804;23;20400;-71
2022/07/15 13:08:29;;;;;;;1.53;1.10;;;24.60;57.90;;;;;;6186770;23;20368;-70
2022/07/15 13:11:01;;;;;;;1.77;1.37;;;24.60;57.80;;;;;;6161160;23;20791;-70
2022/07/15 13:13:30;;;;;;;4.40;1.10;;;24.60;58.00;;;;;;6185307;23;20426;-71
2022/07/15 13:15:58;;;;;;;3.07;1.33;;;24.60;57.60;;;;;;6159993;23;20726;-71
2022/07/15 13:18:28;;;;;;;1.77;1.30;;;24.70;57.40;;;;;;6185330;23;20727;-71